createdAt,value
2023-05-05T00:01:34.303Z,14.97
2023-05-05T00:04:13.985Z,14.92
2023-05-05T00:06:49.983Z,14.89
2023-05-05T00:09:33.764Z,14.86
2023-05-05T00:12:12.698Z,14.78
2023-05-05T00:14:47.526Z,14.65
2023-05-05T00:17:22.633Z,14.57
2023-05-05T00:20:01.101Z,14.64
2023-05-05T00:22:34.876Z,14.71
2023-05-05T00:25:34.596Z,14.68
2023-05-05T00:28:07.936Z,14.69
2023-05-05T00:30:51.030Z,14.45
2023-05-05T00:33:31.135Z,14.65
2023-05-05T00:36:05.689Z,14.64
2023-05-05T00:38:49.898Z,14.42
2023-05-05T00:41:36.814Z,14.65
2023-05-05T00:44:15.006Z,14.55
2023-05-05T00:46:53.071Z,14.52
2023-05-05T00:49:28.503Z,14.58
2023-05-05T00:52:05.731Z,14.55
2023-05-05T00:54:41.317Z,14.53
2023-05-05T00:57:27.645Z,14.54
2023-05-05T01:00:08.884Z,14.44
2023-05-05T01:02:42.576Z,14.36
2023-05-05T01:05:35.167Z,14.57
2023-05-05T01:08:33.739Z,14.50
2023-05-05T01:11:20.804Z,14.51
2023-05-05T01:14:18.235Z,14.49
2023-05-05T01:17:09.314Z,14.43
2023-05-05T01:20:20.846Z,14.41
2023-05-05T01:23:12.809Z,14.35
2023-05-05T01:26:12.864Z,14.37
2023-05-05T01:29:09.708Z,14.36
2023-05-05T01:32:11.177Z,14.32
2023-05-05T01:35:01.604Z,14.31
2023-05-05T01:37:49.123Z,14.37
2023-05-05T01:40:25.266Z,14.20
2023-05-05T01:43:03.466Z,14.34
2023-05-05T01:45:50.210Z,14.19
2023-05-05T01:48:34.473Z,14.21
2023-05-05T01:51:22.661Z,14.26
2023-05-05T01:54:01.631Z,14.21
2023-05-05T01:56:44.810Z,14.06
2023-05-05T01:59:24.194Z,14.17
2023-05-05T02:02:22.340Z,14.16
2023-05-05T02:04:59.003Z,14.14
2023-05-05T02:07:51.236Z,14.12
2023-05-05T02:10:29.651Z,13.97
2023-05-05T02:13:05.712Z,14.03
2023-05-05T02:15:47.165Z,14.00
2023-05-05T02:18:25.934Z,14.03
2023-05-05T02:21:07.827Z,14.06
2023-05-05T02:23:46.625Z,14.03
2023-05-05T02:26:28.229Z,14.03
2023-05-05T02:29:09.487Z,13.94
2023-05-05T02:31:57.913Z,13.98
2023-05-05T02:34:43.222Z,14.01
2023-05-05T02:37:30.286Z,13.96
2023-05-05T02:40:12.288Z,13.94
2023-05-05T02:42:50.691Z,13.76
2023-05-05T02:45:27.389Z,13.93
2023-05-05T02:48:08.490Z,13.65
2023-05-05T02:50:47.484Z,13.79
2023-05-05T02:53:32.770Z,13.71
2023-05-05T02:56:29.826Z,13.89
2023-05-05T02:59:16.544Z,13.71
2023-05-05T03:02:09.368Z,13.85
2023-05-05T03:04:46.810Z,13.63
2023-05-05T03:07:30.145Z,13.85
2023-05-05T03:10:18.620Z,13.66
2023-05-05T03:13:00.973Z,13.72
2023-05-05T03:16:00.299Z,13.85
2023-05-05T03:18:40.579Z,13.83
2023-05-05T03:21:23.099Z,13.92
2023-05-05T03:24:03.586Z,13.94
2023-05-05T03:26:46.458Z,13.85
2023-05-05T03:29:27.740Z,13.91
2023-05-05T03:32:19.277Z,13.90
2023-05-05T03:35:02.945Z,13.70
2023-05-05T03:37:49.816Z,13.83
2023-05-05T03:40:36.306Z,13.82
2023-05-05T03:43:15.568Z,13.74
2023-05-05T03:45:49.923Z,13.78
2023-05-05T03:48:32.752Z,13.71
2023-05-05T03:51:19.233Z,13.76
2023-05-05T03:53:58.264Z,13.69
2023-05-05T03:56:34.746Z,13.76
2023-05-05T03:59:21.077Z,13.76
2023-05-05T04:02:00.386Z,13.72
2023-05-05T04:04:42.264Z,13.76
2023-05-05T04:07:16.923Z,13.72
2023-05-05T04:09:49.946Z,13.75
2023-05-05T04:12:29.031Z,13.76
2023-05-05T04:15:18.382Z,13.75
2023-05-05T04:18:03.804Z,13.75
2023-05-05T04:20:45.632Z,13.76
2023-05-05T04:23:24.966Z,13.73
2023-05-05T04:26:00.358Z,13.76
2023-05-05T04:28:37.224Z,13.72
2023-05-05T04:31:14.214Z,13.77
2023-05-05T04:33:51.878Z,13.82
2023-05-05T04:36:26.655Z,13.84
2023-05-05T04:39:04.968Z,13.86
2023-05-05T04:41:59.441Z,13.93
2023-05-05T04:44:37.145Z,13.91
2023-05-05T04:47:18.245Z,14.01
2023-05-05T04:49:54.130Z,13.90
2023-05-05T04:52:39.079Z,14.12
2023-05-05T04:55:17.643Z,14.15
2023-05-05T04:57:55.115Z,14.17
2023-05-05T05:00:32.171Z,14.21
2023-05-05T05:03:12.509Z,14.22
2023-05-05T05:05:48.536Z,14.28
2023-05-05T05:08:25.624Z,14.26
2023-05-05T05:11:05.922Z,14.36
2023-05-05T05:13:44.939Z,14.37
2023-05-05T05:16:16.306Z,14.47
2023-05-05T05:18:56.541Z,14.50
2023-05-05T05:21:33.437Z,14.48
2023-05-05T05:24:07.911Z,14.48
2023-05-05T05:26:43.316Z,14.54
2023-05-05T05:29:18.103Z,14.57
2023-05-05T05:31:53.299Z,14.58
2023-05-05T05:34:37.991Z,14.60
2023-05-05T05:37:12.443Z,14.56
2023-05-05T05:39:52.066Z,14.45
2023-05-05T05:42:31.859Z,14.60
2023-05-05T05:45:06.595Z,14.52
2023-05-05T05:47:40.079Z,14.56
2023-05-05T05:50:29.548Z,14.66
2023-05-05T05:53:13.115Z,14.57
2023-05-05T05:55:52.245Z,14.88
2023-05-05T05:58:31.780Z,14.92
2023-05-05T06:01:07.858Z,14.70
2023-05-05T06:03:49.098Z,14.95
2023-05-05T06:06:27.183Z,15.22
2023-05-05T06:09:03.860Z,15.13
2023-05-05T06:11:44.045Z,15.46
2023-05-05T06:14:20.168Z,15.56
2023-05-05T06:16:58.173Z,15.63
2023-05-05T06:19:46.578Z,15.75
2023-05-05T06:22:22.032Z,15.78
2023-05-05T06:24:57.748Z,15.58
2023-05-05T06:27:40.068Z,15.62
2023-05-05T06:30:29.565Z,15.74
2023-05-05T06:33:01.188Z,15.83
2023-05-05T06:35:40.268Z,15.90
2023-05-05T06:38:18.166Z,15.91
2023-05-05T06:40:58.887Z,16.09
2023-05-05T06:43:33.600Z,16.16
2023-05-05T06:46:15.394Z,16.33
2023-05-05T06:48:51.596Z,16.40
2023-05-05T06:51:25.716Z,16.45
2023-05-05T06:54:07.108Z,16.61
2023-05-05T06:56:48.238Z,16.70
2023-05-05T06:59:21.491Z,16.68
2023-05-05T07:01:59.083Z,16.74
2023-05-05T07:04:40.551Z,16.85
2023-05-05T07:07:14.070Z,16.86
2023-05-05T07:09:57.154Z,16.87
2023-05-05T07:12:40.147Z,17.14
2023-05-05T07:15:29.296Z,17.13
2023-05-05T07:18:06.885Z,17.20
2023-05-05T07:20:44.557Z,17.36
2023-05-05T07:23:23.403Z,17.28
2023-05-05T07:26:05.186Z,17.47
2023-05-05T07:28:45.685Z,17.71
2023-05-05T07:31:30.530Z,17.69
2023-05-05T07:34:19.421Z,17.95
2023-05-05T07:36:57.970Z,17.98
2023-05-05T07:39:40.816Z,18.06
2023-05-05T07:42:23.208Z,18.01
2023-05-05T07:45:01.252Z,18.09
2023-05-05T07:47:41.908Z,18.08
2023-05-05T07:50:16.808Z,18.25
2023-05-05T07:52:54.001Z,18.42
2023-05-05T07:55:43.895Z,18.49
2023-05-05T07:58:47.609Z,18.63
2023-05-05T08:01:22.219Z,18.62
2023-05-05T08:04:13.410Z,18.74
2023-05-05T08:06:57.294Z,18.87
2023-05-05T08:09:40.727Z,18.99
2023-05-05T08:12:22.410Z,18.97
2023-05-05T08:15:01.463Z,19.05
2023-05-05T08:17:51.524Z,18.85
2023-05-05T08:20:32.959Z,19.15
2023-05-05T08:23:07.572Z,19.35
2023-05-05T08:25:50.421Z,19.44
2023-05-05T08:28:29.143Z,19.54
2023-05-05T08:31:18.819Z,19.65
2023-05-05T08:33:55.753Z,19.73
2023-05-05T08:36:29.388Z,19.72
2023-05-05T08:39:14.270Z,19.78
2023-05-05T08:41:48.143Z,19.89
2023-05-05T08:44:29.828Z,19.97
2023-05-05T08:47:14.325Z,19.98
2023-05-05T08:50:00.335Z,19.93
2023-05-05T08:52:42.171Z,20.03
2023-05-05T08:55:22.673Z,20.10
2023-05-05T08:58:04.804Z,20.19
2023-05-05T09:00:42.975Z,20.16
2023-05-05T09:03:18.879Z,20.20
2023-05-05T09:05:55.666Z,20.37
2023-05-05T09:08:46.928Z,20.59
2023-05-05T09:11:24.200Z,20.70
2023-05-05T09:16:47.388Z,20.83
2023-05-05T09:19:33.441Z,20.76
2023-05-05T09:22:09.000Z,20.92
2023-05-05T09:25:07.480Z,20.99
2023-05-05T09:27:48.054Z,21.00
2023-05-05T09:30:33.158Z,21.03
2023-05-05T09:33:14.412Z,21.15
2023-05-05T09:36:08.978Z,21.25
2023-05-05T09:38:49.121Z,21.36
2023-05-05T09:41:48.638Z,21.57
2023-05-05T09:44:42.813Z,21.79
2023-05-05T09:47:28.552Z,21.96
2023-05-05T09:50:08.096Z,22.04
2023-05-05T09:52:41.393Z,22.19
2023-05-05T09:55:31.790Z,22.17
2023-05-05T09:58:30.603Z,22.26
2023-05-05T10:01:27.110Z,22.26
2023-05-05T10:03:58.391Z,22.19
2023-05-05T10:06:47.841Z,21.94
2023-05-05T10:09:38.259Z,22.05
2023-05-05T10:12:20.452Z,22.21
2023-05-05T10:15:01.163Z,22.21
2023-05-05T10:17:53.883Z,22.19
2023-05-05T10:20:41.822Z,22.00
2023-05-05T10:23:26.463Z,22.14
2023-05-05T10:26:11.416Z,22.09
2023-05-05T10:28:49.998Z,21.95
2023-05-05T10:31:41.773Z,21.99
2023-05-05T10:34:24.737Z,21.91
2023-05-05T10:37:19.287Z,21.74
2023-05-05T10:39:59.345Z,21.54
2023-05-05T10:42:35.342Z,21.68
2023-05-05T10:45:27.148Z,21.73
2023-05-05T10:48:04.607Z,21.81
2023-05-05T10:50:53.726Z,21.83
2023-05-05T10:53:43.843Z,22.06
2023-05-05T10:56:33.710Z,22.29
2023-05-05T10:59:31.734Z,22.45
2023-05-05T11:02:05.040Z,22.47
2023-05-05T11:04:38.145Z,22.85
2023-05-05T11:07:35.588Z,22.96
2023-05-05T11:10:08.143Z,22.92
2023-05-05T11:13:10.346Z,23.17
2023-05-05T11:15:48.591Z,23.08
2023-05-05T11:18:44.771Z,23.16
2023-05-05T11:21:29.248Z,23.15
2023-05-05T11:24:34.806Z,23.37
2023-05-05T11:27:13.350Z,23.55
2023-05-05T11:30:17.110Z,23.91
2023-05-05T11:33:29.817Z,24.27
2023-05-05T11:36:06.021Z,24.57
2023-05-05T11:38:57.124Z,24.86
2023-05-05T11:42:24.448Z,25.04
2023-05-05T11:45:08.540Z,25.35
2023-05-05T11:47:50.414Z,25.59
2023-05-05T11:50:31.507Z,25.68
2023-05-05T11:53:11.946Z,25.55
2023-05-05T11:55:57.404Z,25.52
2023-05-05T11:58:33.233Z,25.65
2023-05-05T12:01:17.590Z,25.67
2023-05-05T12:03:58.789Z,25.78
2023-05-05T12:06:43.405Z,25.55
2023-05-05T12:09:19.228Z,25.59
2023-05-05T12:12:12.316Z,25.74
2023-05-05T12:14:58.929Z,25.66
2023-05-05T12:17:42.911Z,25.86
2023-05-05T12:20:19.196Z,26.06
2023-05-05T12:22:57.044Z,26.30
2023-05-05T12:25:43.304Z,26.42
2023-05-05T12:28:23.901Z,26.78
2023-05-05T12:31:09.256Z,26.87
2023-05-05T12:33:48.401Z,26.79
2023-05-05T12:36:38.609Z,26.67
2023-05-05T12:39:16.700Z,26.46
2023-05-05T12:41:59.673Z,26.23
2023-05-05T12:44:50.818Z,25.90
2023-05-05T12:47:35.474Z,25.68
2023-05-05T12:50:20.299Z,25.70
2023-05-05T12:53:17.892Z,25.87
2023-05-05T12:56:00.721Z,26.12
2023-05-05T12:59:04.593Z,26.25
2023-05-05T13:01:56.404Z,26.19
2023-05-05T13:04:38.575Z,26.16
2023-05-05T13:07:20.963Z,26.20
2023-05-05T13:09:56.401Z,26.52
2023-05-05T13:12:32.581Z,26.92
2023-05-05T13:15:11.425Z,27.18
2023-05-05T13:17:51.455Z,27.06
2023-05-05T13:20:41.248Z,27.45
2023-05-05T13:23:18.877Z,27.33
2023-05-05T13:26:02.474Z,27.16
2023-05-05T13:28:40.693Z,27.00
2023-05-05T13:31:15.153Z,26.99
2023-05-05T13:33:47.306Z,26.77
2023-05-05T13:36:35.116Z,26.63
2023-05-05T13:39:13.742Z,26.50
2023-05-05T13:41:56.306Z,26.40
2023-05-05T13:44:42.884Z,26.25
2023-05-05T13:47:23.224Z,26.49
2023-05-05T13:50:01.229Z,26.64
2023-05-05T13:52:37.811Z,26.50
2023-05-05T13:55:15.175Z,26.40
2023-05-05T13:57:52.768Z,26.29
2023-05-05T14:03:11.690Z,25.92
2023-05-05T14:05:52.418Z,25.76
2023-05-05T14:08:35.238Z,25.93
2023-05-05T14:11:07.736Z,25.78
2023-05-05T14:13:48.413Z,25.62
2023-05-05T14:16:34.852Z,25.54
2023-05-05T14:19:19.297Z,25.52
2023-05-05T14:21:57.506Z,25.76
2023-05-05T14:24:36.871Z,26.00
2023-05-05T14:27:14.365Z,26.14
2023-05-05T14:29:50.365Z,26.40
2023-05-05T14:32:28.469Z,26.68
2023-05-05T14:35:09.747Z,26.95
2023-05-05T14:37:47.642Z,26.92
2023-05-05T14:40:21.643Z,26.94
2023-05-05T14:43:01.508Z,26.98
2023-05-05T14:45:35.811Z,26.97
2023-05-05T14:48:13.668Z,26.94
2023-05-05T14:50:50.211Z,26.94
2023-05-05T14:53:29.440Z,26.89
2023-05-05T14:56:19.090Z,26.78
2023-05-05T14:58:58.023Z,26.73
2023-05-05T15:01:44.856Z,26.68
2023-05-05T15:04:35.306Z,26.52
2023-05-05T15:07:06.987Z,26.50
2023-05-05T15:09:44.289Z,26.43
2023-05-05T15:12:26.183Z,26.33
2023-05-05T15:15:00.330Z,26.32
2023-05-05T15:17:41.467Z,26.21
2023-05-05T15:20:18.487Z,26.10
2023-05-05T15:22:58.343Z,26.06
2023-05-05T15:25:33.069Z,26.00
2023-05-05T15:28:07.002Z,25.95
2023-05-05T15:30:45.902Z,25.91
2023-05-05T15:33:31.592Z,25.93
2023-05-05T15:36:07.401Z,25.83
2023-05-05T15:38:54.892Z,25.61
2023-05-05T15:41:32.657Z,25.48
2023-05-05T15:44:08.594Z,25.40
2023-05-05T15:46:42.590Z,25.26
2023-05-05T15:49:23.187Z,25.23
2023-05-05T15:52:07.879Z,25.28
2023-05-05T15:54:56.318Z,25.33
2023-05-05T15:57:36.585Z,25.32
2023-05-05T16:00:17.570Z,25.39
2023-05-05T16:02:50.905Z,25.54
2023-05-05T16:05:29.716Z,25.56
2023-05-05T16:08:16.541Z,25.61
2023-05-05T16:10:52.670Z,25.68
2023-05-05T16:13:34.893Z,25.72
2023-05-05T16:16:23.926Z,25.78
2023-05-05T16:19:12.312Z,25.76
2023-05-05T16:21:48.065Z,25.76
2023-05-05T16:24:26.570Z,25.49
2023-05-05T16:27:12.260Z,25.69
2023-05-05T16:29:46.656Z,25.71
2023-05-05T16:32:34.255Z,25.68
2023-05-05T16:35:12.423Z,25.70
2023-05-05T16:37:57.897Z,25.58
2023-05-05T16:40:34.796Z,25.69
2023-05-05T16:43:12.786Z,25.62
2023-05-05T16:45:44.883Z,25.59
2023-05-05T16:48:32.990Z,25.62
2023-05-05T16:51:09.560Z,25.59
2023-05-05T16:53:43.583Z,25.61
2023-05-05T16:56:22.799Z,25.63
2023-05-05T16:58:57.547Z,25.64
2023-05-05T17:01:35.670Z,25.65
2023-05-05T17:04:14.022Z,25.70
2023-05-05T17:06:53.232Z,25.69
2023-05-05T17:09:29.876Z,25.54
2023-05-05T17:12:12.826Z,25.63
2023-05-05T17:14:54.935Z,25.44
2023-05-05T17:17:28.825Z,25.33
2023-05-05T17:20:03.371Z,25.33
2023-05-05T17:22:43.573Z,25.19
2023-05-05T17:25:17.987Z,25.08
2023-05-05T17:28:04.699Z,24.94
2023-05-05T17:30:43.343Z,24.80
2023-05-05T17:33:32.070Z,24.68
2023-05-05T17:36:12.231Z,24.52
2023-05-05T17:38:51.466Z,24.35
2023-05-05T17:41:28.734Z,24.11
2023-05-05T17:44:05.955Z,24.12
2023-05-05T17:46:48.528Z,24.02
2023-05-05T17:49:29.174Z,23.84
2023-05-05T17:52:09.894Z,23.79
2023-05-05T17:54:49.832Z,23.70
2023-05-05T17:57:33.575Z,23.58
2023-05-05T18:00:16.226Z,23.45
2023-05-05T18:02:48.795Z,23.37
2023-05-05T18:05:21.261Z,23.30
2023-05-05T18:07:55.367Z,23.24
2023-05-05T18:10:36.089Z,23.14
2023-05-05T18:13:21.890Z,23.09
2023-05-05T18:16:07.760Z,22.97
2023-05-05T18:18:46.002Z,22.93
2023-05-05T18:21:21.875Z,22.87
2023-05-05T18:24:04.635Z,22.74
2023-05-05T18:26:45.051Z,22.75
2023-05-05T18:29:17.349Z,22.67
2023-05-05T18:31:54.994Z,22.46
2023-05-05T18:34:35.629Z,22.55
2023-05-05T18:37:10.628Z,22.48
2023-05-05T18:39:51.102Z,22.40
2023-05-05T18:42:27.498Z,22.31
2023-05-05T18:45:08.396Z,22.35
2023-05-05T18:47:53.998Z,22.21
2023-05-05T18:50:32.954Z,22.24
2023-05-05T18:53:18.922Z,22.18
2023-05-05T18:56:01.371Z,22.07
2023-05-05T18:58:41.664Z,22.03
2023-05-05T19:01:24.103Z,21.95
2023-05-05T19:04:00.525Z,21.85
2023-05-05T19:06:36.806Z,21.80
2023-05-05T19:09:15.749Z,21.62
2023-05-05T19:11:56.319Z,21.69
2023-05-05T19:14:27.364Z,21.58
2023-05-05T19:17:11.020Z,21.52
2023-05-05T19:19:47.565Z,21.54
2023-05-05T19:22:33.588Z,21.71
2023-05-05T19:25:14.827Z,21.78
2023-05-05T19:28:02.405Z,21.86
2023-05-05T19:30:44.429Z,21.94
2023-05-05T19:33:19.555Z,21.97
2023-05-05T19:35:59.974Z,21.97
2023-05-05T19:38:44.991Z,22.06
2023-05-05T19:41:27.601Z,22.04
2023-05-05T19:44:07.162Z,22.05
2023-05-05T19:46:44.105Z,22.08
2023-05-05T19:49:23.260Z,22.08
2023-05-05T19:52:04.026Z,21.97
2023-05-05T19:54:46.040Z,22.11
2023-05-05T19:57:22.776Z,22.13
2023-05-05T20:00:00.942Z,22.05
2023-05-05T20:02:43.256Z,21.96
2023-05-05T20:05:26.715Z,21.85
2023-05-05T20:08:07.435Z,21.73
2023-05-05T20:10:47.274Z,21.70
2023-05-05T20:13:36.800Z,21.68
2023-05-05T20:16:27.243Z,21.63
2023-05-05T20:19:02.728Z,21.57
2023-05-05T20:21:43.832Z,21.55
2023-05-05T20:24:21.185Z,21.48
2023-05-05T20:27:14.435Z,21.44
2023-05-05T20:29:52.729Z,21.37
2023-05-05T20:32:27.451Z,21.30
2023-05-05T20:35:08.653Z,21.23
2023-05-05T20:37:40.819Z,21.17
2023-05-05T20:40:17.268Z,21.07
2023-05-05T20:42:52.973Z,20.97
2023-05-05T20:45:31.717Z,20.85
2023-05-05T20:48:08.000Z,20.66
2023-05-05T20:50:46.413Z,20.74
2023-05-05T20:53:22.972Z,20.69
2023-05-05T20:56:06.427Z,20.57
2023-05-05T20:58:45.500Z,20.48
2023-05-05T21:01:21.275Z,20.24
2023-05-05T21:04:01.842Z,20.36
2023-05-05T21:06:43.056Z,20.35
2023-05-05T21:09:23.193Z,20.33
2023-05-05T21:12:00.360Z,20.36
2023-05-05T21:14:37.006Z,20.36
2023-05-05T21:17:21.067Z,20.35
2023-05-05T21:19:55.737Z,20.33
2023-05-05T21:22:33.199Z,20.31
2023-05-05T21:25:18.722Z,20.29
2023-05-05T21:28:03.885Z,20.30
2023-05-05T21:30:39.743Z,20.32
2023-05-05T21:33:26.208Z,20.30
2023-05-05T21:36:02.726Z,20.29
2023-05-05T21:38:39.325Z,20.26
2023-05-05T21:41:15.520Z,20.20
2023-05-05T21:43:59.549Z,20.20
2023-05-05T21:46:34.191Z,20.19
2023-05-05T21:49:19.499Z,20.21
2023-05-05T21:52:00.672Z,20.23
2023-05-05T21:54:39.241Z,20.20
2023-05-05T21:57:12.781Z,20.18
2023-05-05T21:59:49.073Z,20.16
2023-05-05T22:02:26.942Z,20.14
2023-05-05T22:05:01.691Z,20.11
2023-05-05T22:07:35.304Z,20.11
2023-05-05T22:10:12.026Z,20.06
2023-05-05T22:12:52.355Z,20.06
2023-05-05T22:15:38.977Z,20.00
2023-05-05T22:18:18.850Z,20.01
2023-05-05T22:21:06.757Z,19.75
2023-05-05T22:23:48.574Z,19.94
2023-05-05T22:26:27.457Z,19.98
2023-05-05T22:29:04.778Z,19.97
2023-05-05T22:31:39.833Z,19.95
2023-05-05T22:34:18.553Z,19.98
2023-05-05T22:36:55.643Z,19.96
2023-05-05T22:39:36.895Z,19.89
2023-05-05T22:42:14.235Z,19.77
2023-05-05T22:44:49.493Z,19.84
2023-05-05T22:47:34.589Z,19.61
2023-05-05T22:50:11.503Z,19.68
2023-05-05T22:52:49.942Z,19.53
2023-05-05T22:55:25.197Z,19.40
2023-05-05T22:58:01.413Z,19.24
2023-05-05T23:00:40.990Z,19.10
2023-05-05T23:03:17.840Z,19.09
2023-05-05T23:06:02.768Z,18.95
2023-05-05T23:08:50.629Z,18.91
2023-05-05T23:11:25.364Z,18.82
2023-05-05T23:14:17.196Z,18.78
2023-05-05T23:16:54.002Z,18.73
2023-05-05T23:19:38.291Z,18.70
2023-05-05T23:22:13.937Z,18.63
2023-05-05T23:24:49.916Z,18.62
2023-05-05T23:27:26.306Z,18.51
2023-05-05T23:30:11.177Z,18.56
2023-05-05T23:33:01.391Z,18.54
2023-05-05T23:35:46.567Z,18.49
2023-05-05T23:38:20.775Z,18.41
2023-05-05T23:41:00.377Z,18.36
2023-05-05T23:43:33.273Z,18.26
2023-05-05T23:46:27.708Z,18.23
2023-05-05T23:49:10.651Z,17.92
2023-05-05T23:51:56.692Z,18.01
2023-05-05T23:54:34.188Z,17.93
2023-05-05T23:57:15.037Z,17.86
2023-05-05T23:59:49.791Z,17.77
